Time;durP1;ratioP1;P1;durP2;ratioP2;P2;SDS_P1;SDS_P2;PMS_P1;PMS_P2;Temp;Humidity;BMP_temperature;BMP_pressure;BME280_temperature;BME280_humidity;BME280_pressure;Samples;Min_cycle;Max_cycle;Signal;HPM_P1;HPM_P2
2021/04/27 03:06:57;;;;;;;6.73;1.67;;;3.00;66.30;;;;;;3467971;41;20056;-86
2021/04/27 03:09:33;;;;;;;4.47;1.70;;;3.00;66.70;;;;;;3475981;41;20034;-85
2021/04/27 03:56:03;;;;;;;9.40;2.00;;;2.40;72.30;;;;;;5392006;24;20047;-84
2021/04/27 03:58:33;;;;;;;7.70;2.20;;;2.50;72.70;;;;;;3464993;41;20024;-83
2021/04/27 04:01:01;;;;;;;6.03;1.88;;;2.60;72.80;;;;;;3462596;41;20037;-85
2021/04/27 04:03:29;;;;;;;5.23;2.30;;;2.60;72.70;;;;;;3464751;41;20055;-88
2021/04/27 04:45:42;;;;;;;8.13;2.30;;;2.80;75.00;;;;;;3911718;24;20058;-90
2021/04/27 05:26:50;;;;;;;7.50;2.53;;;3.90;71.60;;;;;;5569847;23;21150;-85
2021/04/27 05:29:19;;;;;;;5.17;1.90;;;4.00;70.70;;;;;;3467987;41;20027;-91
2021/04/27 05:46:38;;;;;;;6.85;2.92;;;4.10;70.20;;;;;;6216303;22;1613340;-83
2021/04/27 05:49:06;;;;;;;7.82;2.88;;;5.00;67.40;;;;;;6249800;22;20020;-84
2021/04/27 05:51:36;;;;;;;8.13;2.90;;;5.10;67.40;;;;;;6262033;23;19988;-85
2021/04/27 05:54:05;;;;;;;6.80;3.03;;;5.10;66.50;;;;;;6253317;22;20024;-84
2021/04/27 05:59:40;;;;;;;12.88;2.72;;;5.20;66.90;;;;;;6226259;22;20040;-85
2021/04/27 06:02:38;;;;;;;10.05;2.63;;;5.20;66.80;;;;;;6255393;23;20004;-84
2021/04/27 06:05:06;;;;;;;12.95;3.28;;;5.40;66.50;;;;;;6229757;23;20008;-85
2021/04/27 06:07:34;;;;;;;9.45;2.97;;;5.50;66.50;;;;;;6229884;23;20006;-86
2021/04/27 06:10:02;;;;;;;6.70;2.70;;;5.80;65.90;;;;;;6204650;22;19997;-84
2021/04/27 06:18:36;;;;;;;8.73;2.60;;;6.90;61.30;;;;;;6238417;22;20029;-84
2021/04/27 06:21:06;;;;;;;8.85;2.67;;;6.90;61.00;;;;;;6173039;23;20044;-83
2021/04/27 06:23:35;;;;;;;8.88;2.78;;;6.90;60.90;;;;;;6224173;23;20000;-85
2021/04/27 06:26:03;;;;;;;;;;;6.70;61.40;;;;;;6224898;23;20001;-85
2021/04/27 06:31:28;;;;;;;9.23;2.92;;;6.60;62.20;;;;;;6254395;22;20016;-84
2021/04/27 06:33:57;;;;;;;7.75;2.92;;;6.50;62.50;;;;;;6229491;22;20008;-84
2021/04/27 06:36:25;;;;;;;9.90;2.55;;;6.60;62.20;;;;;;6230310;23;20003;-84
2021/04/27 06:38:53;;;;;;;8.23;2.58;;;6.70;62.20;;;;;;6203583;23;20007;-82
2021/04/27 06:41:21;;;;;;;9.30;3.20;;;6.70;62.00;;;;;;6226874;23;20324;-83
2021/04/27 06:43:50;;;;;;;5.85;2.60;;;6.70;61.80;;;;;;6224990;23;20005;-83
2021/04/27 06:46:19;;;;;;;;;;;6.90;61.90;;;;;;6194322;23;20008;-82
2021/04/27 06:48:46;;;;;;;5.10;2.05;;;6.90;61.80;;;;;;6217936;23;19916;-82
2021/04/27 06:51:17;;;;;;;6.63;2.63;;;7.10;61.50;;;;;;6217916;23;20012;-82
2021/04/27 06:53:46;;;;;;;8.00;2.42;;;7.10;61.30;;;;;;6245240;23;20001;-82
2021/04/27 06:56:17;;;;;;;8.40;2.45;;;7.20;60.40;;;;;;6222662;23;20012;-83
2021/04/27 06:58:45;;;;;;;6.88;2.22;;;7.30;59.90;;;;;;6239638;23;20008;-84
2021/04/27 07:01:12;;;;;;;6.28;2.90;;;7.40;58.30;;;;;;6216941;23;20013;-82
2021/04/27 07:03:41;;;;;;;8.95;2.45;;;7.50;58.40;;;;;;6242261;23;20043;-82
2021/04/27 07:06:09;;;;;;;5.93;2.40;;;7.60;58.40;;;;;;6217320;23;20012;-82
2021/04/27 07:08:38;;;;;;;5.97;2.45;;;7.70;57.30;;;;;;6192278;23;20008;-82
2021/04/27 07:11:10;;;;;;;7.43;1.67;;;7.90;57.00;;;;;;6169111;23;20005;-83
2021/04/27 07:13:39;;;;;;;13.50;2.78;;;7.90;55.10;;;;;;6190108;23;20045;-84
2021/04/27 07:16:06;;;;;;;8.43;2.28;;;7.90;55.50;;;;;;6165509;23;20002;-83
2021/04/27 07:18:34;;;;;;;10.25;2.13;;;7.90;56.10;;;;;;6189714;23;20024;-84
2021/04/27 07:21:04;;;;;;;7.28;2.10;;;8.10;55.30;;;;;;6188620;23;20224;-81
2021/04/27 07:23:32;;;;;;;10.93;3.30;;;8.10;54.60;;;;;;6215660;23;20005;-83
2021/04/27 07:26:00;;;;;;;4.95;2.20;;;8.20;55.20;;;;;;6186893;23;20016;-84
2021/04/27 07:28:29;;;;;;;6.45;2.13;;;8.20;54.70;;;;;;6160341;23;20012;-82
2021/04/27 07:30:57;;;;;;;6.40;2.30;;;8.30;53.50;;;;;;6205805;23;20020;-83
2021/04/27 07:33:24;;;;;;;8.23;2.30;;;8.30;53.00;;;;;;6214136;23;20026;-83
2021/04/27 07:35:53;;;;;;;5.50;1.90;;;8.50;53.70;;;;;;6188581;23;20013;-84
2021/04/27 07:38:21;;;;;;;;;;;8.50;52.10;;;;;;6190112;23;20020;-83
2021/04/27 07:40:51;;;;;;;7.45;1.80;;;8.60;52.70;;;;;;6211998;23;19927;-82
2021/04/27 07:43:21;;;;;;;9.52;1.70;;;8.70;51.20;;;;;;6187922;23;20009;-82
2021/04/27 07:45:49;;;;;;;4.32;1.58;;;8.70;49.60;;;;;;6214478;23;20016;-84
2021/04/27 07:48:16;;;;;;;4.50;1.77;;;8.70;49.20;;;;;;6215258;23;20005;-83
2021/04/27 07:50:44;;;;;;;7.47;1.88;;;8.60;49.20;;;;;;6214751;23;20015;-83
2021/04/27 07:53:12;;;;;;;3.50;1.45;;;8.70;48.60;;;;;;6184444;23;20016;-82
2021/04/27 07:55:41;;;;;;;10.85;2.22;;;8.80;48.80;;;;;;6209690;23;20009;-82
2021/04/27 07:58:10;;;;;;;6.70;1.65;;;8.90;48.60;;;;;;6186596;23;20013;-82
2021/04/27 08:00:38;;;;;;;4.05;1.55;;;9.10;48.20;;;;;;6209300;23;20012;-81
2021/04/27 08:03:06;;;;;;;9.20;1.50;;;9.10;45.30;;;;;;6207853;23;20012;-83
2021/04/27 08:05:33;;;;;;;4.95;1.80;;;9.20;43.90;;;;;;6209255;23;20015;-80
2021/04/27 08:08:01;;;;;;;6.05;1.80;;;9.20;45.20;;;;;;6209463;23;20009;-83
2021/04/27 08:10:29;;;;;;;3.28;1.15;;;9.20;43.40;;;;;;6210635;23;20061;-83
2021/04/27 08:12:57;;;;;;;5.67;1.63;;;9.20;43.80;;;;;;6211775;23;20043;-83
2021/04/27 08:15:27;;;;;;;4.32;1.77;;;9.30;43.50;;;;;;6210684;23;20009;-82
2021/04/27 08:17:59;;;;;;;6.22;1.83;;;9.30;43.30;;;;;;6211934;23;20012;-82
2021/04/27 08:20:27;;;;;;;5.93;2.03;;;9.30;43.50;;;;;;6214395;23;20016;-82
2021/04/27 08:23:03;;;;;;;6.30;1.58;;;9.30;42.90;;;;;;6215553;23;20001;-83
2021/04/27 08:25:32;;;;;;;5.78;1.58;;;9.40;43.20;;;;;;6214666;23;20007;-82
2021/04/27 08:28:00;;;;;;;4.30;1.83;;;9.50;42.60;;;;;;6188093;23;20012;-84
2021/04/27 08:30:27;;;;;;;3.03;1.30;;;9.50;42.70;;;;;;6211086;23;20017;-82
2021/04/27 08:32:57;;;;;;;5.50;1.70;;;9.60;42.20;;;;;;6213700;23;20006;-82
2021/04/27 08:35:29;;;;;;;2.95;1.25;;;9.70;42.10;;;;;;6213118;23;20009;-83
2021/04/27 08:37:57;;;;;;;4.72;1.50;;;9.80;41.70;;;;;;6214101;23;19997;-82
2021/04/27 08:40:24;;;;;;;5.63;1.45;;;9.90;41.10;;;;;;6212345;23;20036;-82
2021/04/27 08:42:52;;;;;;;9.40;2.10;;;10.00;40.70;;;;;;6214052;23;20004;-81
2021/04/27 08:45:20;;;;;;;8.18;1.50;;;10.10;40.20;;;;;;6189423;23;20008;-82
2021/04/27 08:47:49;;;;;;;11.13;2.00;;;10.10;39.80;;;;;;6213324;23;20018;-83
2021/04/27 08:50:19;;;;;;;5.88;1.23;;;10.20;39.80;;;;;;6215421;23;20013;-83
2021/04/27 08:52:47;;;;;;;5.82;1.58;;;10.30;39.90;;;;;;6210630;23;20012;-82
2021/04/27 08:55:15;;;;;;;3.50;1.20;;;10.30;40.80;;;;;;6211557;23;20013;-82
2021/04/27 08:57:43;;;;;;;5.33;1.37;;;10.20;40.00;;;;;;6211110;23;20005;-82
2021/04/27 09:00:18;;;;;;;2.53;1.13;;;10.30;39.50;;;;;;6212792;23;20005;-81
2021/04/27 09:02:53;;;;;;;7.95;1.55;;;10.40;39.30;;;;;;6211016;23;20008;-81
2021/04/27 09:05:23;;;;;;;4.15;1.52;;;10.40;39.20;;;;;;6211482;23;20001;-82
2021/04/27 09:07:52;;;;;;;7.65;1.85;;;10.40;39.90;;;;;;6206129;23;20009;-82
2021/04/27 09:10:26;;;;;;;4.80;1.55;;;10.40;40.80;;;;;;6206476;23;20031;-82
2021/04/27 09:12:57;;;;;;;7.88;1.20;;;10.50;40.30;;;;;;6210243;23;20005;-85
2021/04/27 09:15:27;;;;;;;5.13;1.60;;;10.60;39.60;;;;;;6185906;23;20020;-80
2021/04/27 09:17:57;;;;;;;4.05;1.60;;;10.60;40.70;;;;;;6212657;23;20009;-81
2021/04/27 09:20:27;;;;;;;7.53;2.72;;;10.60;41.10;;;;;;6235429;23;20013;-83
2021/04/27 09:23:07;;;;;;;4.68;1.42;;;10.70;40.40;;;;;;6210434;23;20009;-87
2021/04/27 09:25:35;;;;;;;5.18;1.60;;;10.90;39.80;;;;;;6185050;23;20012;-82
2021/04/27 09:28:03;;;;;;;3.63;1.38;;;10.90;39.20;;;;;;6204961;23;20013;-83
2021/04/27 09:30:31;;;;;;;3.72;1.58;;;11.00;38.50;;;;;;6209227;23;20020;-85
2021/04/27 09:32:59;;;;;;;6.63;1.67;;;11.10;38.70;;;;;;6212246;23;20005;-81
2021/04/27 09:35:34;;;;;;;5.60;2.00;;;11.10;38.80;;;;;;6182157;23;20012;-83
2021/04/27 09:38:12;;;;;;;3.42;1.60;;;11.20;39.40;;;;;;6154728;23;20009;-85
2021/04/27 09:40:54;;;;;;;6.90;1.70;;;11.20;39.10;;;;;;6179880;23;20009;-83
2021/04/27 09:43:29;;;;;;;8.20;1.95;;;11.20;38.80;;;;;;6175754;23;20041;-82
2021/04/27 09:45:59;;;;;;;3.78;1.63;;;11.40;39.00;;;;;;6201395;23;20001;-83
2021/04/27 09:48:35;;;;;;;4.43;1.70;;;11.40;39.30;;;;;;6154878;23;20017;-82
2021/04/27 09:51:19;;;;;;;5.30;2.33;;;11.50;38.30;;;;;;6146009;23;20036;-88
2021/04/27 09:53:50;;;;;;;7.75;1.65;;;11.70;38.30;;;;;;6210536;23;20012;-83
2021/04/27 09:59:16;;;;;;;5.88;1.63;;;12.50;37.00;;;;;;6202161;22;20255;-77
2021/04/27 10:01:47;;;;;;;4.47;1.67;;;13.10;37.00;;;;;;6226412;23;20040;-78
2021/04/27 10:04:16;;;;;;;5.20;1.67;;;13.70;35.70;;;;;;6226400;23;20024;-78
2021/04/27 10:06:48;;;;;;;4.70;1.70;;;14.40;34.90;;;;;;6198310;23;20332;-79
2021/04/27 10:09:18;;;;;;;3.67;1.88;;;15.10;34.40;;;;;;6172678;23;20036;-79
2021/04/27 10:11:51;;;;;;;4.63;1.75;;;15.60;33.40;;;;;;6225089;23;20045;-78
2021/04/27 10:14:20;;;;;;;5.78;1.73;;;16.00;32.90;;;;;;6197786;23;20363;-79
2021/04/27 10:16:47;;;;;;;4.75;1.75;;;16.50;31.90;;;;;;6172889;23;20044;-79
2021/04/27 10:19:18;;;;;;;4.70;2.05;;;17.00;30.90;;;;;;6225209;23;20052;-77
2021/04/27 10:21:48;;;;;;;5.00;1.80;;;17.20;31.00;;;;;;6199812;23;20425;-77
2021/04/27 10:24:19;;;;;;;7.07;2.30;;;17.90;30.20;;;;;;6226375;23;20040;-77
2021/04/27 10:26:47;;;;;;;10.30;2.42;;;18.20;29.90;;;;;;6199044;23;20360;-76
2021/04/27 10:29:20;;;;;;;6.57;1.80;;;18.50;29.50;;;;;;6226231;23;20259;-77
2021/04/27 10:32:08;;;;;;;5.82;2.20;;;18.80;29.30;;;;;;6199468;23;20052;-77
2021/04/27 10:34:35;;;;;;;7.70;1.85;;;19.30;29.00;;;;;;6198899;23;20372;-77
2021/04/27 10:37:09;;;;;;;8.35;2.20;;;19.80;28.70;;;;;;6224784;23;20259;-78
2021/04/27 10:39:38;;;;;;;4.78;1.77;;;20.20;27.90;;;;;;6232490;23;20019;-76
2021/04/27 10:42:16;;;;;;;8.98;2.00;;;20.30;27.60;;;;;;6233626;23;20304;-77
2021/04/27 10:44:52;;;;;;;5.70;1.50;;;20.60;27.20;;;;;;6231028;23;20029;-77
2021/04/27 10:47:20;;;;;;;13.15;2.47;;;21.20;26.40;;;;;;6177501;23;20032;-78
2021/04/27 10:49:48;;;;;;;7.35;2.50;;;21.90;26.70;;;;;;6182678;23;20008;-78
2021/04/27 10:52:32;;;;;;;11.85;1.83;;;22.60;26.20;;;;;;6208529;23;20008;-77
2021/04/27 10:55:25;;;;;;;4.18;1.80;;;22.60;25.90;;;;;;6206468;23;20041;-77
2021/04/27 10:57:54;;;;;;;4.18;1.50;;;23.10;25.70;;;;;;6200670;23;20053;-79
2021/04/27 11:00:34;;;;;;;6.70;1.90;;;23.80;25.40;;;;;;6225829;23;20032;-78
2021/04/27 11:03:13;;;;;;;3.63;1.50;;;24.00;25.40;;;;;;6199163;23;20045;-79
2021/04/27 11:05:51;;;;;;;4.80;1.95;;;24.70;24.90;;;;;;6200469;23;20345;-78
2021/04/27 11:08:19;;;;;;;5.07;1.80;;;25.20;24.10;;;;;;6226534;23;20044;-80
2021/04/27 11:10:49;;;;;;;;;;;25.60;24.00;;;;;;6226517;23;20044;-79
2021/04/27 11:13:16;;;;;;;10.05;2.67;;;25.80;24.00;;;;;;6200315;23;19964;-80
2021/04/27 11:15:45;;;;;;;6.30;1.73;;;26.20;23.70;;;;;;6224549;23;20044;-78
2021/04/27 11:18:17;;;;;;;6.03;2.03;;;26.70;23.40;;;;;;6199026;23;20089;-79
2021/04/27 11:20:57;;;;;;;5.55;1.90;;;26.70;23.30;;;;;;6225011;23;20037;-79
2021/04/27 11:23:41;;;;;;;4.82;1.90;;;26.50;23.40;;;;;;6196973;23;20040;-78
2021/04/27 11:26:53;;;;;;;4.85;2.65;;;26.80;23.10;;;;;;6227464;23;20344;-79
2021/04/27 11:29:26;;;;;;;5.18;1.88;;;26.80;22.70;;;;;;6199950;23;20052;-78
2021/04/27 11:32:09;;;;;;;5.80;2.33;;;25.70;23.40;;;;;;6223828;23;20074;-78
2021/04/27 11:35:09;;;;;;;3.70;2.22;;;25.10;23.50;;;;;;6225732;23;20044;-79
2021/04/27 11:37:40;;;;;;;6.97;2.15;;;26.20;23.60;;;;;;6160327;23;20455;-80
2021/04/27 11:40:22;;;;;;;6.18;2.33;;;27.00;23.00;;;;;;6196315;23;20044;-82
2021/04/27 11:43:00;;;;;;;5.03;2.28;;;27.60;22.70;;;;;;6197642;23;20045;-82
2021/04/27 11:45:30;;;;;;;4.10;1.70;;;27.40;22.60;;;;;;6198693;23;20040;-83
2021/04/27 11:48:01;;;;;;;4.68;1.80;;;27.60;22.60;;;;;;6226070;23;20037;-83
2021/04/27 11:50:31;;;;;;;6.65;2.00;;;28.00;22.50;;;;;;6200374;23;20045;-82
2021/04/27 11:53:02;;;;;;;5.25;1.95;;;28.30;22.50;;;;;;6198123;23;20040;-84
2021/04/27 11:55:40;;;;;;;4.57;1.73;;;28.30;22.60;;;;;;6173585;23;20036;-83
2021/04/27 11:58:13;;;;;;;4.43;1.85;;;28.50;22.10;;;;;;6173714;23;20040;-82
2021/04/27 12:00:44;;;;;;;3.42;1.67;;;28.00;22.00;;;;;;6198404;23;20036;-82
2021/04/27 12:03:23;;;;;;;4.05;1.80;;;27.50;22.40;;;;;;6173632;23;20050;-83
2021/04/27 12:05:52;;;;;;;9.82;2.15;;;27.80;22.40;;;;;;6198516;23;20040;-82
2021/04/27 12:08:23;;;;;;;8.07;2.38;;;28.70;22.20;;;;;;6198528;23;20037;-83
2021/04/27 12:11:09;;;;;;;3.60;1.83;;;29.00;22.20;;;;;;6172761;23;20040;-83
2021/04/27 12:13:40;;;;;;;13.32;2.40;;;28.90;22.10;;;;;;6198045;23;20037;-82
2021/04/27 12:16:10;;;;;;;9.20;2.03;;;27.70;22.20;;;;;;6172979;23;20040;-81
2021/04/27 12:18:55;;;;;;;5.00;2.03;;;27.80;22.40;;;;;;6172862;23;20048;-83
2021/04/27 12:21:43;;;;;;;4.00;1.55;;;27.80;22.30;;;;;;6198518;23;20040;-81
2021/04/27 12:24:19;;;;;;;5.97;1.98;;;28.20;22.40;;;;;;6174482;23;20036;-81
2021/04/27 12:26:55;;;;;;;6.68;2.60;;;28.30;22.60;;;;;;6197499;23;20268;-82
2021/04/27 12:29:41;;;;;;;4.00;2.10;;;28.60;22.40;;;;;;6174832;23;20243;-81
2021/04/27 12:32:11;;;;;;;3.42;1.80;;;28.90;21.90;;;;;;6199357;23;20048;-81
2021/04/27 12:34:54;;;;;;;6.72;2.00;;;29.40;21.90;;;;;;6175085;23;20044;-83
2021/04/27 12:37:25;;;;;;;5.50;2.13;;;29.70;21.90;;;;;;6174795;23;20044;-83
2021/04/27 12:39:54;;;;;;;3.63;1.80;;;29.40;21.90;;;;;;6197898;23;20044;-83
2021/04/27 12:42:28;;;;;;;5.97;2.08;;;29.80;22.00;;;;;;6198268;23;20060;-81
2021/04/27 12:44:58;;;;;;;4.40;2.00;;;30.40;21.90;;;;;;6173119;23;20044;-83
2021/04/27 12:47:26;;;;;;;4.35;2.05;;;31.00;21.70;;;;;;6175217;23;20049;-81
2021/04/27 12:50:02;;;;;;;8.30;2.33;;;31.00;21.40;;;;;;6174224;23;20045;-83
2021/04/27 12:52:32;;;;;;;8.45;2.70;;;31.20;21.50;;;;;;6173174;23;20036;-82
2021/04/27 12:55:03;;;;;;;6.40;1.90;;;31.80;21.30;;;;;;6195878;23;20048;-82
2021/04/27 12:57:32;;;;;;;7.70;2.47;;;32.20;21.40;;;;;;6225972;23;20019;-82
2021/04/27 13:00:05;;;;;;;5.90;2.67;;;31.30;21.50;;;;;;6198851;23;20056;-81
2021/04/27 13:02:36;;;;;;;4.38;2.25;;;31.40;21.20;;;;;;6198064;23;20045;-82
2021/04/27 13:05:10;;;;;;;2.72;1.73;;;31.50;21.30;;;;;;6172296;23;20423;-84
2021/04/27 13:07:39;;;;;;;11.55;2.30;;;31.50;21.50;;;;;;6196260;23;20036;-83
2021/04/27 13:10:11;;;;;;;6.25;2.20;;;31.80;21.40;;;;;;6223535;23;20041;-83
2021/04/27 13:12:43;;;;;;;7.20;1.98;;;32.60;21.30;;;;;;6196264;23;20041;-84
2021/04/27 13:15:19;;;;;;;4.13;2.70;;;32.90;21.20;;;;;;6221880;23;20036;-83
2021/04/27 13:17:57;;;;;;;3.67;1.90;;;33.20;21.30;;;;;;6172100;23;20092;-83
2021/04/27 13:20:26;;;;;;;;;;;33.00;21.10;;;;;;6199642;23;20056;-83
2021/04/27 13:22:57;;;;;;;4.20;1.90;;;32.80;21.30;;;;;;6225826;23;19955;-82
2021/04/27 13:25:35;;;;;;;6.70;2.30;;;32.90;21.30;;;;;;6223828;23;20043;-82
2021/04/27 13:28:10;;;;;;;4.40;2.30;;;32.30;21.50;;;;;;6174361;23;20125;-80
2021/04/27 13:30:46;;;;;;;5.75;2.00;;;31.60;21.40;;;;;;6198431;23;20407;-82
2021/04/27 13:33:18;;;;;;;4.40;2.20;;;31.70;21.50;;;;;;6173088;23;20044;-84
2021/04/27 13:36:01;;;;;;;5.97;2.45;;;31.80;21.60;;;;;;6200693;23;20060;-82
2021/04/27 13:38:33;;;;;;;5.43;2.40;;;31.70;21.50;;;;;;6175655;23;20040;-83
2021/04/27 13:41:02;;;;;;;3.60;1.77;;;31.80;21.40;;;;;;6199297;23;20056;-83
2021/04/27 13:43:39;;;;;;;7.70;3.05;;;31.90;22.00;;;;;;6204143;23;20043;-83
2021/04/27 13:46:08;;;;;;;9.95;2.55;;;31.30;21.40;;;;;;6214065;23;20011;-83
2021/04/27 13:48:35;;;;;;;5.97;2.30;;;31.10;21.40;;;;;;6165552;23;20020;-83
2021/04/27 13:51:06;;;;;;;8.68;3.25;;;31.30;21.30;;;;;;6188141;23;20009;-83
2021/04/27 13:53:35;;;;;;;10.02;2.88;;;31.40;21.50;;;;;;6189582;23;20016;-83
2021/04/27 13:56:05;;;;;;;5.63;2.30;;;31.30;21.50;;;;;;6190582;23;20388;-81
2021/04/27 13:58:35;;;;;;;4.43;1.88;;;31.40;21.40;;;;;;6235599;23;20333;-82
2021/04/27 14:01:04;;;;;;;4.15;2.13;;;31.30;21.40;;;;;;6201316;23;20048;-83
2021/04/27 14:03:34;;;;;;;7.90;3.08;;;31.80;21.50;;;;;;6180869;23;20303;-80
2021/04/27 14:06:05;;;;;;;8.20;3.78;;;32.40;21.60;;;;;;6203793;23;20036;-83
2021/04/27 14:08:32;;;;;;;9.18;2.30;;;32.30;21.40;;;;;;6200958;23;20085;-83
2021/04/27 14:10:59;;;;;;;5.90;2.78;;;32.10;21.40;;;;;;6200567;23;20040;-83
2021/04/27 14:13:27;;;;;;;5.10;2.88;;;31.90;21.30;;;;;;6176423;23;20045;-83
2021/04/27 14:15:56;;;;;;;4.60;2.55;;;31.50;21.50;;;;;;6200325;23;20045;-83
2021/04/27 14:18:26;;;;;;;6.28;2.25;;;31.60;21.60;;;;;;6175521;23;20049;-82
2021/04/27 14:20:53;;;;;;;3.75;1.88;;;31.40;21.20;;;;;;6200467;23;20049;-83
2021/04/27 14:23:23;;;;;;;5.07;2.33;;;31.40;21.40;;;;;;6200808;23;20068;-82
2021/04/27 14:25:50;;;;;;;3.67;1.70;;;31.40;21.40;;;;;;6173701;23;20056;-82
2021/04/27 14:28:19;;;;;;;7.78;2.40;;;31.60;21.30;;;;;;6175291;23;20044;-82
2021/04/27 14:30:46;;;;;;;;;;;32.00;21.20;;;;;;6226924;23;20044;-81
2021/04/27 14:33:15;;;;;;;;;;;32.00;21.40;;;;;;6199429;23;19944;-83
2021/04/27 14:35:45;;;;;;;10.52;3.00;;;31.60;21.50;;;;;;6225638;23;19959;-82
2021/04/27 14:38:19;;;;;;;4.75;1.73;;;31.50;21.70;;;;;;6226652;23;20086;-83
2021/04/27 14:40:47;;;;;;;5.40;2.13;;;31.90;21.10;;;;;;6201792;23;20033;-84
2021/04/27 14:43:22;;;;;;;8.20;2.20;;;32.10;21.20;;;;;;6175549;23;20041;-84
2021/04/27 14:45:49;;;;;;;5.68;2.55;;;31.80;21.40;;;;;;6224898;23;20037;-85
2021/04/27 14:48:18;;;;;;;5.20;2.30;;;31.60;21.20;;;;;;6199740;23;20242;-85
2021/04/27 14:50:45;;;;;;;;;;;31.20;21.40;;;;;;6224907;23;20040;-84
2021/04/27 14:53:13;;;;;;;6.40;2.33;;;30.70;21.50;;;;;;6226274;23;20251;-84
2021/04/27 14:55:40;;;;;;;6.07;2.10;;;31.00;21.40;;;;;;6196192;23;20045;-84
2021/04/27 14:58:28;;;;;;;4.80;2.30;;;31.10;21.40;;;;;;6227823;23;20045;-84
2021/04/27 15:00:55;;;;;;;3.78;2.15;;;31.30;21.20;;;;;;6200735;23;20060;-84
2021/04/27 15:03:26;;;;;;;8.02;2.83;;;31.60;21.20;;;;;;6176000;23;20033;-84
2021/04/27 15:05:54;;;;;;;5.15;2.55;;;31.90;21.20;;;;;;6199124;23;20252;-84
2021/04/27 15:08:25;;;;;;;5.47;2.20;;;31.90;21.20;;;;;;6174265;23;20045;-84
2021/04/27 15:10:52;;;;;;;3.95;1.90;;;31.50;21.20;;;;;;6200445;23;20041;-85
2021/04/27 15:13:22;;;;;;;8.20;2.63;;;30.80;21.40;;;;;;6199940;23;20033;-85
2021/04/27 15:15:55;;;;;;;5.55;2.28;;;30.50;21.50;;;;;;6199774;23;20032;-84
2021/04/27 15:18:32;;;;;;;7.30;2.70;;;29.80;21.70;;;;;;6200616;23;20044;-84
2021/04/27 15:20:59;;;;;;;8.75;2.95;;;29.60;21.80;;;;;;6200592;23;20036;-86
2021/04/27 15:23:30;;;;;;;5.45;2.60;;;29.90;21.90;;;;;;6199398;23;20356;-85
2021/04/27 15:25:59;;;;;;;5.32;2.67;;;30.20;21.50;;;;;;6224843;23;20063;-85
2021/04/27 15:28:34;;;;;;;6.55;2.72;;;30.30;21.60;;;;;;6200466;23;20259;-85
2021/04/27 15:31:32;;;;;;;6.40;3.10;;;30.50;21.40;;;;;;6226933;23;20458;-84
2021/04/27 15:34:11;;;;;;;8.63;3.90;;;30.30;21.40;;;;;;6109480;23;20054;-85
2021/04/27 15:36:48;;;;;;;5.53;2.72;;;30.00;21.70;;;;;;6173419;23;20044;-83
2021/04/27 15:39:23;;;;;;;6.53;2.55;;;30.00;21.70;;;;;;6151134;23;20044;-84
2021/04/27 15:41:52;;;;;;;7.72;3.50;;;30.10;21.50;;;;;;6199871;23;20094;-84
2021/04/27 15:44:23;;;;;;;7.95;2.60;;;30.20;21.50;;;;;;6175098;23;20044;-84
2021/04/27 15:46:56;;;;;;;5.07;2.22;;;30.10;21.40;;;;;;6224520;23;20036;-85
2021/04/27 15:49:26;;;;;;;5.03;2.58;;;29.70;21.50;;;;;;6179421;23;20017;-85
2021/04/27 15:51:57;;;;;;;6.32;2.65;;;29.90;21.60;;;;;;6200303;23;20067;-85
2021/04/27 15:54:28;;;;;;;8.15;2.63;;;30.00;21.50;;;;;;6200272;23;20008;-86
2021/04/27 15:57:03;;;;;;;8.98;3.08;;;30.10;21.60;;;;;;6227829;23;20336;-83
2021/04/27 15:59:44;;;;;;;6.03;2.90;;;30.00;21.80;;;;;;6168851;23;20109;-83
2021/04/27 16:02:17;;;;;;;10.10;2.95;;;30.10;21.70;;;;;;6169477;23;20037;-84
2021/04/27 16:04:47;;;;;;;4.78;2.38;;;29.80;21.80;;;;;;6195786;23;20033;-84
2021/04/27 16:07:20;;;;;;;5.13;2.40;;;29.60;21.80;;;;;;6144378;23;20221;-84
2021/04/27 16:09:49;;;;;;;4.63;2.67;;;29.40;21.90;;;;;;6169747;23;20037;-83
2021/04/27 16:12:24;;;;;;;5.50;2.50;;;29.30;21.90;;;;;;6169666;23;20041;-83
2021/04/27 16:14:56;;;;;;;6.72;3.15;;;29.20;22.00;;;;;;6144377;23;20095;-83
2021/04/27 16:17:26;;;;;;;4.93;2.38;;;29.20;21.90;;;;;;6168502;23;20012;-83
2021/04/27 16:19:57;;;;;;;6.25;2.60;;;28.80;22.10;;;;;;6144816;23;20045;-84
2021/04/27 16:22:35;;;;;;;5.35;2.88;;;28.20;22.10;;;;;;6171241;23;20041;-84
2021/04/27 16:25:11;;;;;;;10.77;3.97;;;27.90;22.20;;;;;;6144178;23;20037;-82
2021/04/27 16:27:41;;;;;;;7.57;2.50;;;27.80;22.40;;;;;;6168941;23;20283;-83
2021/04/27 16:30:12;;;;;;;5.35;2.47;;;27.60;22.40;;;;;;6119651;23;20037;-83
2021/04/27 16:32:42;;;;;;;7.03;2.92;;;27.60;22.40;;;;;;6143414;23;20040;-83
2021/04/27 16:35:12;;;;;;;5.75;2.25;;;27.50;22.50;;;;;;6144022;23;20044;-83
2021/04/27 16:37:43;;;;;;;4.60;2.30;;;27.20;22.60;;;;;;6171405;23;20037;-83
2021/04/27 16:40:15;;;;;;;4.38;2.22;;;27.30;22.70;;;;;;6171335;23;20040;-82
2021/04/27 16:42:49;;;;;;;4.10;2.20;;;27.10;22.50;;;;;;6143348;23;20462;-83
2021/04/27 16:45:23;;;;;;;9.00;2.65;;;27.00;22.70;;;;;;6169626;23;20041;-83
2021/04/27 16:47:57;;;;;;;8.55;3.30;;;26.40;22.90;;;;;;6145446;23;20352;-83
2021/04/27 16:50:35;;;;;;;5.53;2.30;;;26.20;23.10;;;;;;6169417;23;20060;-84
2021/04/27 16:53:17;;;;;;;8.15;2.50;;;26.00;23.10;;;;;;6145382;23;20040;-85
2021/04/27 16:56:28;;;;;;;7.03;2.53;;;25.80;23.20;;;;;;6195706;23;20053;-84
2021/04/27 16:58:55;;;;;;;7.43;2.65;;;25.40;23.30;;;;;;6174507;23;20053;-83
2021/04/27 17:01:36;;;;;;;8.02;2.50;;;25.20;23.60;;;;;;6197785;23;20036;-84
2021/04/27 17:04:13;;;;;;;5.10;2.15;;;25.10;23.60;;;;;;6229452;23;20025;-84
2021/04/27 17:06:44;;;;;;;6.03;2.20;;;24.70;23.70;;;;;;6198807;23;20040;-83
2021/04/27 17:09:12;;;;;;;5.22;2.10;;;24.30;24.10;;;;;;6225772;23;20044;-83
2021/04/27 17:11:39;;;;;;;6.30;2.63;;;24.20;24.30;;;;;;6227375;23;20011;-83
2021/04/27 17:14:07;;;;;;;4.65;2.28;;;24.20;24.20;;;;;;6198515;23;20009;-83
2021/04/27 17:16:43;;;;;;;4.93;2.17;;;24.20;24.30;;;;;;6198102;23;20104;-84
2021/04/27 17:19:12;;;;;;;5.45;2.63;;;24.20;24.30;;;;;;6224184;23;20033;-84
2021/04/27 17:21:39;;;;;;;6.32;2.50;;;24.10;24.40;;;;;;6174170;23;20049;-83
2021/04/27 17:24:12;;;;;;;5.57;2.90;;;23.80;24.50;;;;;;6148084;23;20040;-84
2021/04/27 17:26:40;;;;;;;6.35;2.90;;;23.40;24.90;;;;;;6197856;23;20116;-84
2021/04/27 17:29:15;;;;;;;5.93;3.08;;;23.10;25.00;;;;;;6196036;23;20048;-84
2021/04/27 17:31:46;;;;;;;9.75;3.30;;;22.80;24.90;;;;;;6173903;23;20032;-83
2021/04/27 17:34:16;;;;;;;5.00;3.10;;;22.60;25.20;;;;;;6173734;23;20040;-84
2021/04/27 17:36:51;;;;;;;6.22;2.88;;;22.40;25.40;;;;;;6200998;23;20041;-83
2021/04/27 17:39:29;;;;;;;8.13;3.38;;;22.20;25.50;;;;;;6174374;23;20040;-86
2021/04/27 17:42:09;;;;;;;5.13;2.80;;;21.90;25.80;;;;;;6200799;23;20255;-84
2021/04/27 17:44:37;;;;;;;15.18;5.57;;;21.20;26.30;;;;;;6174806;23;20037;-88
2021/04/27 17:47:10;;;;;;;9.77;3.90;;;20.20;27.10;;;;;;6205596;23;20034;-85
2021/04/27 17:49:38;;;;;;;9.75;3.90;;;19.00;27.90;;;;;;6200430;23;20033;-86
2021/04/27 17:52:07;;;;;;;10.15;5.07;;;18.10;28.70;;;;;;6201352;23;20308;-88
2021/04/27 17:54:52;;;;;;;8.02;4.03;;;17.30;29.30;;;;;;6202303;23;20051;-87
2021/04/27 17:57:32;;;;;;;10.35;4.75;;;16.70;29.90;;;;;;6231053;23;20001;-88
2021/04/27 18:00:08;;;;;;;;;;;16.20;30.60;;;;;;6205082;23;20052;-89
2021/04/27 18:06:41;;;;;;;12.60;4.22;;;15.40;31.70;;;;;;6029595;23;20134;-90
2021/04/27 18:09:12;;;;;;;12.63;4.70;;;15.10;32.40;;;;;;6008808;23;20023;-87
2021/04/27 18:20:13;;;;;;;8.73;3.90;;;14.40;33.70;;;;;;5971579;24;20180;-84
2021/04/27 18:27:49;;;;;;;7.22;3.13;;;13.90;35.00;;;;;;5976648;24;20239;-90
2021/04/27 18:30:27;;;;;;;6.57;2.40;;;13.60;35.60;;;;;;5998376;23;20015;-89
2021/04/27 18:37:20;;;;;;;;;;;13.40;35.90;;;;;;5990355;24;20028;-89
2021/04/27 18:51:02;;;;;;;5.00;2.53;;;12.70;37.30;;;;;;5950715;23;20039;-92
2021/04/27 18:53:38;;;;;;;7.07;2.90;;;12.50;37.60;;;;;;6029045;23;20423;-91
2021/04/27 18:56:12;;;;;;;7.75;2.53;;;12.40;37.90;;;;;;6027564;23;20058;-92
2021/04/27 18:58:42;;;;;;;9.77;2.95;;;12.30;38.20;;;;;;6031145;23;20058;-92
2021/04/27 19:01:18;;;;;;;8.13;2.83;;;12.20;38.50;;;;;;6058336;23;20387;-91
2021/04/27 19:03:48;;;;;;;9.18;2.47;;;12.10;38.80;;;;;;6057520;23;20088;-92
2021/04/27 19:15:01;;;;;;;13.07;4.70;;;11.80;39.50;;;;;;5939774;24;20078;-91
2021/04/27 19:17:30;;;;;;;5.13;2.53;;;11.70;39.80;;;;;;5939058;24;20381;-92
2021/04/27 19:20:03;;;;;;;6.90;2.70;;;11.70;40.00;;;;;;5943595;24;20049;-90
2021/04/27 19:22:33;;;;;;;5.65;2.53;;;11.70;40.20;;;;;;5945128;24;20021;-91
2021/04/27 19:25:01;;;;;;;5.03;2.63;;;11.60;40.40;;;;;;5995207;24;20275;-92
2021/04/27 19:27:31;;;;;;;5.95;3.15;;;11.50;40.50;;;;;;5992805;24;20019;-91
2021/04/27 19:29:59;;;;;;;6.23;2.50;;;11.40;40.60;;;;;;5997238;24;20032;-91
2021/04/27 19:32:29;;;;;;;8.77;4.38;;;11.40;40.60;;;;;;5977575;24;20276;-91
2021/04/27 19:51:58;;;;;;;14.50;6.47;;;11.00;41.60;;;;;;6112980;23;20021;-92
2021/04/27 19:55:40;;;;;;;;;;;;;;;;;;;;;